createdAt,value
2018-12-29T00:00:07.013Z,18.65
2018-12-29T00:02:37.642Z,18.55
2018-12-29T00:05:07.804Z,18.40
2018-12-29T00:07:38.003Z,17.95
2018-12-29T00:10:08.325Z,17.45
2018-12-29T00:12:38.987Z,17.90
2018-12-29T00:15:09.375Z,17.20
2018-12-29T00:17:39.688Z,17.10
2018-12-29T00:20:09.837Z,18.77
2018-12-29T00:22:40.636Z,16.57
2018-12-29T00:25:11.695Z,18.85
2018-12-29T00:27:41.645Z,19.12
2018-12-29T00:30:12.413Z,16.12
2018-12-29T00:32:42.398Z,17.20
2018-12-29T00:35:12.503Z,17.17
2018-12-29T00:37:42.506Z,17.20
2018-12-29T00:40:12.666Z,17.98
2018-12-29T00:42:42.668Z,18.25
2018-12-29T00:45:13.033Z,16.23
2018-12-29T00:47:42.965Z,16.65
2018-12-29T00:50:13.276Z,15.98
2018-12-29T00:52:43.595Z,15.93
2018-12-29T00:55:13.496Z,16.67
2018-12-29T00:57:43.601Z,18.05
2018-12-29T01:00:13.556Z,17.02
2018-12-29T01:02:43.574Z,17.60
2018-12-29T01:05:13.663Z,16.90
2018-12-29T01:07:43.740Z,18.02
2018-12-29T01:10:13.809Z,17.45
2018-12-29T01:12:43.639Z,16.25
2018-12-29T01:15:15.260Z,17.40
2018-12-29T01:17:45.571Z,17.90
2018-12-29T01:20:15.504Z,19.45
2018-12-29T01:22:45.502Z,19.12
2018-12-29T01:25:15.447Z,18.85
2018-12-29T01:27:45.374Z,17.67
2018-12-29T01:30:15.956Z,17.07
2018-12-29T01:32:46.241Z,16.35
2018-12-29T01:35:16.223Z,17.15
2018-12-29T01:37:46.047Z,20.00
2018-12-29T01:40:15.870Z,18.95
2018-12-29T01:42:45.829Z,15.72
2018-12-29T01:45:17.568Z,17.45
2018-12-29T01:47:47.592Z,16.32
2018-12-29T01:50:17.427Z,17.60
2018-12-29T01:52:47.360Z,17.92
2018-12-29T01:55:17.272Z,20.02
2018-12-29T01:57:47.098Z,17.27
2018-12-29T02:00:16.951Z,17.82
2018-12-29T02:02:46.962Z,18.50
2018-12-29T02:05:17.000Z,16.62
2018-12-29T02:07:46.861Z,19.55
2018-12-29T02:10:16.710Z,18.07
2018-12-29T02:12:46.664Z,16.82
2018-12-29T02:15:16.513Z,17.90
2018-12-29T02:17:46.363Z,18.27
2018-12-29T02:20:16.146Z,18.02
2018-12-29T02:22:45.957Z,18.80
2018-12-29T02:25:15.801Z,18.62
2018-12-29T02:27:50.445Z,18.00
2018-12-29T02:30:21.872Z,18.67
2018-12-29T02:32:51.709Z,19.02
2018-12-29T02:35:27.294Z,19.60
2018-12-29T02:37:57.472Z,19.23
2018-12-29T02:40:27.245Z,15.60
2018-12-29T02:42:57.008Z,16.97
2018-12-29T02:45:33.086Z,17.55
2018-12-29T02:48:00.497Z,16.97
2018-12-29T02:50:30.448Z,19.87
2018-12-29T02:53:01.129Z,19.25
2018-12-29T02:55:31.026Z,17.92
2018-12-29T02:58:00.850Z,19.30
2018-12-29T03:00:30.631Z,17.10
2018-12-29T03:03:00.473Z,16.10
2018-12-29T03:05:30.385Z,16.87
2018-12-29T03:08:00.246Z,19.80
2018-12-29T03:10:30.048Z,17.35
2018-12-29T03:13:00.133Z,19.57
2018-12-29T03:15:29.948Z,19.80
2018-12-29T03:18:09.115Z,18.70
2018-12-29T03:20:42.645Z,18.07
2018-12-29T03:23:14.576Z,18.27
2018-12-29T03:25:44.313Z,17.92
2018-12-29T03:28:16.723Z,16.73
2018-12-29T03:30:46.468Z,17.70
2018-12-29T03:33:16.261Z,16.75
2018-12-29T03:35:56.057Z,17.92
2018-12-29T03:38:26.136Z,18.60
2018-12-29T03:40:55.902Z,17.02
2018-12-29T03:43:25.741Z,16.95
2018-12-29T03:45:57.120Z,16.17
2018-12-29T03:48:26.871Z,16.20
2018-12-29T03:50:56.681Z,17.60
2018-12-29T03:53:26.471Z,15.03
2018-12-29T03:55:56.280Z,17.98
2018-12-29T03:58:26.090Z,17.77
2018-12-29T04:00:55.848Z,17.55
2018-12-29T04:03:25.747Z,16.52
2018-12-29T04:05:55.598Z,17.77
2018-12-29T04:08:25.416Z,17.98
2018-12-29T04:10:57.707Z,15.68
2018-12-29T04:13:27.608Z,17.55
2018-12-29T04:15:58.230Z,16.15
2018-12-29T04:18:28.349Z,17.37
2018-12-29T04:20:58.194Z,17.00
2018-12-29T04:23:28.004Z,17.48
2018-12-29T04:25:57.979Z,17.70
2018-12-29T04:28:30.498Z,17.65
2018-12-29T04:31:00.412Z,18.05
2018-12-29T04:33:30.155Z,18.35
2018-12-29T04:35:59.988Z,17.75
2018-12-29T04:38:29.738Z,18.07
2018-12-29T04:40:59.663Z,17.60
2018-12-29T04:43:29.590Z,16.93
2018-12-29T04:46:05.212Z,18.80
2018-12-29T04:48:31.384Z,19.92
2018-12-29T04:51:01.180Z,18.42
2018-12-29T04:53:31.057Z,18.45
2018-12-29T04:56:00.889Z,17.07
2018-12-29T04:58:30.718Z,16.48
2018-12-29T05:01:00.599Z,16.87
2018-12-29T05:03:30.475Z,17.15
2018-12-29T05:06:00.388Z,16.60
2018-12-29T05:08:30.524Z,16.40
2018-12-29T05:11:00.416Z,17.02
2018-12-29T05:13:30.211Z,16.70
2018-12-29T05:16:00.215Z,14.70
2018-12-29T05:18:30.022Z,17.25
2018-12-29T05:20:59.867Z,17.27
2018-12-29T05:23:29.648Z,17.50
2018-12-29T05:25:59.432Z,15.95
2018-12-29T05:28:29.347Z,19.00
2018-12-29T05:30:59.171Z,16.93
2018-12-29T05:33:29.147Z,17.98
2018-12-29T05:35:58.952Z,18.62
2018-12-29T05:38:28.772Z,16.85
2018-12-29T05:40:58.595Z,18.23
2018-12-29T05:43:28.388Z,16.23
2018-12-29T05:45:58.166Z,16.52
2018-12-29T05:48:28.107Z,16.30
2018-12-29T05:50:57.927Z,16.90
2018-12-29T05:53:27.722Z,16.65
2018-12-29T05:55:57.538Z,17.23
2018-12-29T05:58:27.335Z,16.10
2018-12-29T06:00:57.181Z,13.20
2018-12-29T06:03:27.092Z,18.40
2018-12-29T06:05:57.111Z,16.30
2018-12-29T06:08:27.025Z,16.80
2018-12-29T06:10:56.804Z,17.02
2018-12-29T06:13:26.624Z,17.10
2018-12-29T06:15:56.406Z,17.15
2018-12-29T06:18:26.185Z,17.62
2018-12-29T06:20:56.056Z,16.32
2018-12-29T06:23:25.877Z,16.17
2018-12-29T06:25:55.655Z,13.62
2018-12-29T06:28:25.414Z,15.28
2018-12-29T06:30:55.215Z,15.60
2018-12-29T06:33:24.951Z,15.40
2018-12-29T06:35:54.745Z,14.90
2018-12-29T06:38:24.587Z,16.07
2018-12-29T06:40:54.603Z,16.23
2018-12-29T06:43:24.387Z,17.12
2018-12-29T06:45:54.200Z,16.30
2018-12-29T06:48:23.948Z,16.45
2018-12-29T06:50:53.779Z,16.67
2018-12-29T06:53:23.870Z,14.65
2018-12-29T06:55:53.672Z,16.80
2018-12-29T06:58:24.600Z,14.93
2018-12-29T07:00:54.437Z,15.15
2018-12-29T07:03:24.222Z,15.93
2018-12-29T07:05:54.086Z,16.62
2018-12-29T07:08:23.847Z,13.13
2018-12-29T07:10:53.660Z,15.00
2018-12-29T07:13:23.462Z,15.78
2018-12-29T07:15:53.429Z,13.30
2018-12-29T07:18:23.226Z,14.10
2018-12-29T07:20:53.034Z,14.35
2018-12-29T07:23:22.881Z,12.45
2018-12-29T07:25:52.767Z,15.53
2018-12-29T07:28:22.656Z,14.50
2018-12-29T07:30:52.538Z,15.50
2018-12-29T07:33:22.332Z,14.58
2018-12-29T07:38:25.615Z,15.83
2018-12-29T07:41:05.655Z,16.80
2018-12-29T07:43:43.739Z,14.45
2018-12-29T07:46:35.974Z,16.55
2018-12-29T07:49:08.061Z,15.35
2018-12-29T07:51:37.988Z,15.43
2018-12-29T07:54:07.948Z,14.63
2018-12-29T07:56:37.701Z,15.45
2018-12-29T07:59:07.702Z,18.25
2018-12-29T08:01:37.521Z,16.30
2018-12-29T08:04:07.399Z,14.90
2018-12-29T08:06:37.246Z,16.32
2018-12-29T08:09:07.636Z,15.90
2018-12-29T08:11:37.602Z,14.70
2018-12-29T08:14:07.488Z,16.55
2018-12-29T08:16:37.301Z,15.75
2018-12-29T08:19:07.169Z,14.47
2018-12-29T08:21:38.243Z,16.27
2018-12-29T08:24:14.748Z,17.02
2018-12-29T08:26:49.723Z,16.50
2018-12-29T08:29:19.873Z,16.70
2018-12-29T08:31:49.922Z,15.95
2018-12-29T08:34:19.800Z,17.27
2018-12-29T08:36:52.926Z,15.50
2018-12-29T08:39:22.892Z,15.70
2018-12-29T08:41:52.766Z,17.00
2018-12-29T08:44:22.750Z,16.30
2018-12-29T08:46:52.744Z,15.88
2018-12-29T08:49:22.675Z,15.70
2018-12-29T08:51:52.546Z,16.37
2018-12-29T08:54:23.834Z,16.05
2018-12-29T08:56:53.763Z,15.93
2018-12-29T08:59:23.677Z,17.80
2018-12-29T09:01:53.673Z,15.93
2018-12-29T09:04:23.791Z,21.05
2018-12-29T09:06:53.885Z,18.62
2018-12-29T09:09:25.081Z,16.85
2018-12-29T09:11:58.123Z,15.93
2018-12-29T09:14:28.053Z,14.33
2018-12-29T09:16:58.581Z,16.90
2018-12-29T09:19:32.251Z,17.25
2018-12-29T09:22:02.287Z,15.95
2018-12-29T09:24:32.515Z,16.40
2018-12-29T09:27:02.508Z,16.85
2018-12-29T09:29:32.555Z,16.97
2018-12-29T09:32:02.485Z,14.45
2018-12-29T09:34:43.547Z,15.53
2018-12-29T09:37:13.484Z,16.30
2018-12-29T09:39:44.367Z,15.40
2018-12-29T09:42:14.522Z,16.40
2018-12-29T09:44:44.667Z,17.48
2018-12-29T09:47:19.527Z,16.77
2018-12-29T09:49:46.566Z,17.32
2018-12-29T09:52:19.861Z,17.30
2018-12-29T09:54:53.136Z,18.60
2018-12-29T09:57:23.126Z,16.57
2018-12-29T09:59:53.060Z,18.95
2018-12-29T10:02:22.948Z,14.78
2018-12-29T10:04:53.079Z,18.25
2018-12-29T10:07:25.064Z,16.00
2018-12-29T10:09:55.510Z,17.25
2018-12-29T10:12:25.641Z,17.57
2018-12-29T10:15:04.541Z,18.45
2018-12-29T10:17:34.667Z,17.02
2018-12-29T10:20:04.865Z,16.45
2018-12-29T10:23:54.127Z,16.95
2018-12-29T10:26:56.273Z,17.32
2018-12-29T10:29:26.943Z,17.87
2018-12-29T10:31:56.999Z,16.97
2018-12-29T10:34:38.631Z,18.12
2018-12-29T10:37:08.783Z,14.18
2018-12-29T10:40:15.363Z,16.67
2018-12-29T10:42:45.448Z,16.37
2018-12-29T10:45:17.099Z,17.20
2018-12-29T10:48:05.871Z,18.48
2018-12-29T10:50:44.961Z,17.73
2018-12-29T10:53:15.697Z,21.65
2018-12-29T10:55:45.931Z,20.35
2018-12-29T10:58:16.081Z,22.40
2018-12-29T11:00:50.959Z,26.42
2018-12-29T11:03:21.007Z,20.97
2018-12-29T11:05:51.732Z,19.67
2018-12-29T11:08:22.128Z,20.50
2018-12-29T11:10:54.575Z,21.60
2018-12-29T11:13:26.339Z,22.90
2018-12-29T11:15:56.841Z,21.05
2018-12-29T11:18:26.760Z,22.48
2018-12-29T11:20:57.027Z,24.15
2018-12-29T11:23:27.086Z,22.27
2018-12-29T11:25:57.085Z,21.27
2018-12-29T11:28:27.409Z,21.90
2018-12-29T11:31:01.352Z,23.00
2018-12-29T11:33:31.802Z,22.05
2018-12-29T11:36:02.226Z,20.85
2018-12-29T11:38:33.013Z,21.70
2018-12-29T11:41:07.180Z,21.93
2018-12-29T11:43:43.574Z,24.00
2018-12-29T11:46:21.531Z,20.30
2018-12-29T11:48:52.133Z,21.17
2018-12-29T11:51:23.296Z,20.85
2018-12-29T11:54:04.151Z,25.08
2018-12-29T11:56:36.774Z,24.60
2018-12-29T11:59:09.277Z,23.15
2018-12-29T12:10:37.762Z,22.58
2018-12-29T12:13:28.129Z,23.05
2018-12-29T12:16:05.131Z,20.40
2018-12-29T12:18:35.159Z,23.10
2018-12-29T12:21:05.296Z,25.10
2018-12-29T12:23:39.765Z,21.30
2018-12-29T12:26:13.288Z,19.17
2018-12-29T12:28:49.278Z,20.60
2018-12-29T12:32:29.261Z,24.07
2018-12-29T12:35:00.982Z,22.48
2018-12-29T12:37:31.776Z,20.40
2018-12-29T12:41:16.049Z,23.00
2018-12-29T12:44:39.553Z,20.25
2018-12-29T12:47:37.775Z,22.02
2018-12-29T12:50:54.828Z,20.50
2018-12-29T12:54:12.036Z,22.52
2018-12-29T13:36:42.110Z,16.87
2018-12-29T13:39:12.162Z,17.52
2018-12-29T13:41:42.138Z,17.67
2018-12-29T13:44:12.102Z,16.73
2018-12-29T13:46:42.287Z,17.25
2018-12-29T13:49:12.163Z,16.05
2018-12-29T13:51:42.074Z,16.62
2018-12-29T13:54:12.452Z,17.57
2018-12-29T13:56:42.292Z,17.00
2018-12-29T13:59:12.165Z,19.10
2018-12-29T14:01:42.116Z,17.05
2018-12-29T14:04:12.046Z,17.85
2018-12-29T14:06:42.004Z,16.77
2018-12-29T14:09:11.866Z,18.67
2018-12-29T14:11:41.768Z,16.57
2018-12-29T14:14:11.785Z,18.45
2018-12-29T14:16:42.024Z,20.65
2018-12-29T14:19:12.044Z,18.77
2018-12-29T14:21:41.980Z,16.97
2018-12-29T14:24:11.848Z,16.85
2018-12-29T14:26:42.056Z,17.55
2018-12-29T14:29:11.974Z,18.02
2018-12-29T14:31:41.971Z,17.57
2018-12-29T14:34:12.164Z,17.50
2018-12-29T14:36:42.544Z,16.65
2018-12-29T14:39:12.958Z,15.65
2018-12-29T14:41:42.826Z,16.93
2018-12-29T14:44:12.813Z,17.37
2018-12-29T14:46:42.787Z,16.73
2018-12-29T14:49:12.713Z,16.45
2018-12-29T14:51:42.717Z,16.23
2018-12-29T14:54:12.700Z,15.28
2018-12-29T14:56:42.665Z,19.12
2018-12-29T14:59:13.399Z,17.15
2018-12-29T15:01:43.401Z,19.10
2018-12-29T15:04:13.414Z,17.10
2018-12-29T15:06:43.293Z,17.17
2018-12-29T15:09:13.143Z,17.05
2018-12-29T15:11:42.962Z,16.57
2018-12-29T15:14:12.852Z,17.50
2018-12-29T15:16:43.240Z,15.30
2018-12-29T15:19:13.112Z,16.70
2018-12-29T15:21:43.001Z,14.05
2018-12-29T15:24:12.962Z,14.18
2018-12-29T15:26:43.034Z,15.98
2018-12-29T15:29:13.247Z,14.38
2018-12-29T15:31:43.188Z,14.18
2018-12-29T15:34:13.121Z,13.50
2018-12-29T15:36:42.998Z,14.73
2018-12-29T15:39:12.850Z,14.70
2018-12-29T15:41:42.738Z,14.05
2018-12-29T15:44:12.636Z,15.45
2018-12-29T15:46:42.494Z,14.47
2018-12-29T15:49:12.615Z,13.83
2018-12-29T15:51:42.677Z,15.50
2018-12-29T15:54:12.996Z,13.35
2018-12-29T15:56:42.980Z,13.75
2018-12-29T15:59:13.135Z,13.58
2018-12-29T16:01:43.188Z,15.32
2018-12-29T16:04:13.398Z,13.40
2018-12-29T16:06:43.452Z,13.53
2018-12-29T16:09:13.916Z,15.15
2018-12-29T16:11:44.247Z,13.18
2018-12-29T16:14:14.276Z,13.88
2018-12-29T16:16:44.522Z,14.28
2018-12-29T16:19:15.470Z,14.80
2018-12-29T16:21:45.480Z,14.05
2018-12-29T16:24:15.781Z,13.98
2018-12-29T16:26:45.831Z,11.78
2018-12-29T16:29:15.945Z,13.45
2018-12-29T16:31:45.887Z,13.40
2018-12-29T16:34:16.264Z,13.20
2018-12-29T16:36:46.141Z,14.45
2018-12-29T16:39:16.583Z,13.75
2018-12-29T16:41:46.569Z,12.90
2018-12-29T16:44:17.629Z,12.75
2018-12-29T16:46:48.310Z,12.35
2018-12-29T16:49:18.262Z,13.05
2018-12-29T16:51:48.264Z,15.72
2018-12-29T16:54:18.224Z,15.08
2018-12-29T16:56:48.067Z,17.07
2018-12-29T16:59:18.015Z,17.35
2018-12-29T17:01:47.962Z,18.35
2018-12-29T17:04:18.013Z,25.32
2018-12-29T17:06:48.933Z,23.55
2018-12-29T17:09:19.224Z,20.90
2018-12-29T17:11:52.583Z,21.45
2018-12-29T17:14:21.427Z,22.07
2018-12-29T17:16:51.374Z,22.15
2018-12-29T17:19:21.547Z,21.10
2018-12-29T17:21:51.681Z,22.98
2018-12-29T17:24:21.748Z,21.02
2018-12-29T17:26:51.911Z,19.87
2018-12-29T17:29:21.979Z,19.98
2018-12-29T17:31:51.977Z,20.90
2018-12-29T17:34:21.983Z,20.85
2018-12-29T17:36:52.454Z,20.75
2018-12-29T17:39:22.542Z,21.25
2018-12-29T17:41:52.492Z,21.52
2018-12-29T17:44:22.530Z,20.50
2018-12-29T17:46:52.758Z,21.57
2018-12-29T17:49:24.159Z,26.45
2018-12-29T17:51:54.664Z,22.95
2018-12-29T17:54:24.570Z,22.85
2018-12-29T17:56:54.444Z,22.87
2018-12-29T17:59:24.786Z,21.95
2018-12-29T18:01:55.198Z,23.18
2018-12-29T18:04:25.188Z,22.17
2018-12-29T18:06:55.223Z,21.50
2018-12-29T18:09:25.155Z,20.80
2018-12-29T18:11:55.447Z,21.20
2018-12-29T18:14:25.619Z,22.17
2018-12-29T18:16:55.564Z,19.02
2018-12-29T18:19:30.554Z,19.15
2018-12-29T18:21:58.671Z,19.98
2018-12-29T18:24:28.720Z,21.60
2018-12-29T18:26:58.642Z,20.77
2018-12-29T18:29:29.319Z,18.32
2018-12-29T18:31:59.612Z,16.00
2018-12-29T18:34:29.549Z,17.75
2018-12-29T18:36:59.871Z,16.02
2018-12-29T18:39:32.166Z,14.68
2018-12-29T18:42:02.444Z,17.07
2018-12-29T18:44:32.686Z,14.43
2018-12-29T18:47:03.855Z,17.27
2018-12-29T18:49:38.443Z,14.90
2018-12-29T18:52:06.357Z,15.78
2018-12-29T18:54:36.546Z,15.68
2018-12-29T18:57:06.592Z,12.35
2018-12-29T18:59:36.599Z,13.50
2018-12-29T19:02:06.680Z,11.12
2018-12-29T19:04:36.973Z,11.93
2018-12-29T19:07:07.231Z,9.38
2018-12-29T19:09:37.173Z,9.00
2018-12-29T19:12:11.119Z,8.35
2018-12-29T19:14:39.002Z,8.75
2018-12-29T19:17:08.935Z,8.53
2018-12-29T19:19:46.083Z,10.15
2018-12-29T19:22:11.197Z,9.18
2018-12-29T19:24:41.237Z,9.18
2018-12-29T19:27:11.840Z,9.03
2018-12-29T19:29:42.581Z,10.40
2018-12-29T19:32:13.154Z,9.13
2018-12-29T19:34:43.668Z,11.25
2018-12-29T19:37:14.322Z,8.00
2018-12-29T19:39:50.315Z,9.28
2018-12-29T19:42:23.540Z,9.20
2018-12-29T19:44:54.336Z,8.48
2018-12-29T19:47:24.535Z,8.90
2018-12-29T19:49:55.414Z,7.75
2018-12-29T19:52:26.003Z,9.15
2018-12-29T19:54:56.743Z,8.28
2018-12-29T19:57:32.420Z,8.43
2018-12-29T20:00:04.144Z,7.65
2018-12-29T20:02:34.446Z,6.05
2018-12-29T20:05:05.502Z,6.25
2018-12-29T20:07:35.580Z,8.60
2018-12-29T20:10:06.198Z,7.67
2018-12-29T20:12:39.229Z,7.22
2018-12-29T20:15:09.774Z,7.70
2018-12-29T20:17:40.296Z,7.72
2018-12-29T20:20:15.277Z,8.03
2018-12-29T20:22:45.516Z,9.33
2018-12-29T20:25:16.165Z,9.88
2018-12-29T20:27:46.646Z,10.08
2018-12-29T20:30:17.168Z,11.70
2018-12-29T20:32:47.305Z,13.48
2018-12-29T20:35:18.414Z,14.07
2018-12-29T20:37:48.546Z,15.48
2018-12-29T20:40:18.875Z,16.20
2018-12-29T20:42:56.293Z,15.75
2018-12-29T20:45:22.166Z,14.60
2018-12-29T20:47:53.374Z,16.50
2018-12-29T20:50:23.735Z,14.50
2018-12-29T20:52:58.741Z,14.30
2018-12-29T20:55:29.034Z,14.78
2018-12-29T20:58:02.256Z,15.70
2018-12-29T21:03:20.209Z,15.32
2018-12-29T21:11:33.991Z,11.75
2018-12-29T21:14:04.447Z,12.50
2018-12-29T21:16:35.987Z,14.33
2018-12-29T21:19:07.141Z,13.18
2018-12-29T21:21:38.075Z,12.98
2018-12-29T21:24:12.339Z,14.25
2018-12-29T21:26:41.383Z,12.58
2018-12-29T21:29:11.664Z,14.10
2018-12-29T21:31:41.774Z,12.75
2018-12-29T21:34:11.860Z,14.65
2018-12-29T21:36:42.048Z,13.15
2018-12-29T21:39:12.462Z,12.00
2018-12-29T21:41:42.525Z,13.90
2018-12-29T21:44:12.704Z,13.13
2018-12-29T21:46:42.836Z,13.98
2018-12-29T21:49:12.998Z,11.95
2018-12-29T21:51:46.423Z,13.35
2018-12-29T21:54:23.903Z,11.83
2018-12-29T21:56:57.046Z,13.65
2018-12-29T21:59:28.741Z,11.40
2018-12-29T22:02:01.768Z,13.78
2018-12-29T22:07:37.818Z,12.95
2018-12-29T22:10:21.013Z,12.28
2018-12-29T22:12:53.291Z,11.53
2018-12-29T22:15:24.007Z,11.60
2018-12-29T22:17:54.393Z,12.00
2018-12-29T22:20:24.976Z,12.50
2018-12-29T22:23:28.920Z,12.68
2018-12-29T22:26:12.627Z,10.90
2018-12-29T22:28:52.695Z,10.18
2018-12-29T22:31:54.081Z,9.85
2018-12-29T22:34:25.111Z,9.78
2018-12-29T22:36:57.850Z,10.40
2018-12-29T22:39:30.561Z,8.13
2018-12-29T22:42:03.630Z,9.75
2018-12-29T22:44:33.842Z,7.67
2018-12-29T22:47:03.978Z,7.70
2018-12-29T22:49:37.577Z,8.25
2018-12-29T22:52:16.511Z,8.53
2018-12-29T22:54:50.483Z,6.47
2018-12-29T22:57:21.114Z,6.10
2018-12-29T23:02:50.067Z,4.70
2018-12-29T23:05:23.716Z,4.87
2018-12-29T23:08:11.069Z,3.33
2018-12-29T23:13:26.420Z,4.92
2018-12-29T23:16:19.185Z,3.65
2018-12-29T23:19:13.658Z,3.75
2018-12-29T23:22:23.034Z,2.80
2018-12-29T23:25:04.401Z,3.30
2018-12-29T23:28:17.558Z,2.50
2018-12-29T23:30:48.473Z,2.27
2018-12-29T23:33:18.780Z,2.27
2018-12-29T23:35:49.980Z,2.30
2018-12-29T23:38:20.442Z,2.25
2018-12-29T23:40:50.748Z,2.58
2018-12-29T23:43:20.997Z,2.83
2018-12-29T23:45:51.536Z,2.15
2018-12-29T23:48:22.150Z,2.33
2018-12-29T23:51:05.124Z,2.10
2018-12-29T23:53:28.836Z,2.25
2018-12-29T23:55:59.524Z,1.77
2018-12-29T23:58:29.783Z,2.30
